sensor_id;sensor_type;location;lat;lon;timestamp;pressure;altitude;pressure_sealevel;temperature;humidity
20023;BME280;10172;42.054;24.546;2023-07-31T00:00:31;97529.84;;;24.56;77.48
20023;BME280;10172;42.054;24.546;2023-07-31T00:02:57;97531.94;;;24.41;78.42
20023;BME280;10172;42.054;24.546;2023-07-31T00:05:22;97531.72;;;24.56;77.74
20023;BME280;10172;42.054;24.546;2023-07-31T00:07:48;97534.84;;;24.13;79.59
20023;BME280;10172;42.054;24.546;2023-07-31T00:10:13;97541.16;;;24.92;74.62
20023;BME280;10172;42.054;24.546;2023-07-31T00:12:43;97550.09;;;25.19;73.16
20023;BME280;10172;42.054;24.546;2023-07-31T00:15:09;97558.38;;;25.57;70.72
20023;BME280;10172;42.054;24.546;2023-07-31T00:17:35;97553.63;;;25.20;71.60
20023;BME280;10172;42.054;24.546;2023-07-31T00:20:01;97550.84;;;25.46;70.50
20023;BME280;10172;42.054;24.546;2023-07-31T00:22:26;97558.97;;;25.59;68.97
20023;BME280;10172;42.054;24.546;2023-07-31T00:24:52;97551.66;;;25.53;69.88
20023;BME280;10172;42.054;24.546;2023-07-31T00:27:17;97551.81;;;24.87;73.30
20023;BME280;10172;42.054;24.546;2023-07-31T00:29:43;97552.22;;;24.45;76.39
20023;BME280;10172;42.054;24.546;2023-07-31T00:32:08;97552.22;;;23.58;82.51
20023;BME280;10172;42.054;24.546;2023-07-31T00:34:34;97552.41;;;23.57;83.99
20023;BME280;10172;42.054;24.546;2023-07-31T00:36:59;97546.97;;;23.16;87.58
20023;BME280;10172;42.054;24.546;2023-07-31T00:39:25;97552.38;;;23.50;85.67
20023;BME280;10172;42.054;24.546;2023-07-31T00:41:50;97561.34;;;23.10;88.03
20023;BME280;10172;42.054;24.546;2023-07-31T00:44:15;97563.34;;;22.95;88.89
20023;BME280;10172;42.054;24.546;2023-07-31T00:46:41;97568.44;;;23.11;88.74
20023;BME280;10172;42.054;24.546;2023-07-31T00:49:07;97565.59;;;23.26;87.82
20023;BME280;10172;42.054;24.546;2023-07-31T00:51:33;97587.91;;;22.44;94.83
20023;BME280;10172;42.054;24.546;2023-07-31T00:53:59;97576.22;;;22.93;91.26
20023;BME280;10172;42.054;24.546;2023-07-31T00:56:25;97572.47;;;22.38;95.22
20023;BME280;10172;42.054;24.546;2023-07-31T00:58:50;97580.25;;;22.27;96.74
20023;BME280;10172;42.054;24.546;2023-07-31T01:01:16;97584.44;;;22.08;98.87
20023;BME280;10172;42.054;24.546;2023-07-31T01:03:41;97576.75;;;22.12;97.94
20023;BME280;10172;42.054;24.546;2023-07-31T01:06:30;97584.72;;;22.13;97.25
20023;BME280;10172;42.054;24.546;2023-07-31T01:12:03;97581.81;;;21.79;100.00
20023;BME280;10172;42.054;24.546;2023-07-31T01:14:29;97577.38;;;21.92;100.00
20023;BME280;10172;42.054;24.546;2023-07-31T01:16:55;97580.91;;;22.08;99.48
20023;BME280;10172;42.054;24.546;2023-07-31T01:19:23;97572.47;;;21.81;100.00
20023;BME280;10172;42.054;24.546;2023-07-31T01:22:04;97581.94;;;21.56;100.00
20023;BME280;10172;42.054;24.546;2023-07-31T01:27:15;97583.47;;;21.94;100.00
20023;BME280;10172;42.054;24.546;2023-07-31T01:29:56;97571.97;;;22.77;94.50
20023;BME280;10172;42.054;24.546;2023-07-31T01:32:22;97573.38;;;23.01;91.16
20023;BME280;10172;42.054;24.546;2023-07-31T01:34:51;97581.88;;;22.00;100.00
20023;BME280;10172;42.054;24.546;2023-07-31T01:37:17;97577.75;;;22.46;96.18
20023;BME280;10172;42.054;24.546;2023-07-31T01:39:43;97585.84;;;22.95;92.16
20023;BME280;10172;42.054;24.546;2023-07-31T01:42:08;97590.06;;;22.70;93.28
20023;BME280;10172;42.054;24.546;2023-07-31T01:44:34;97585.28;;;22.72;93.23
20023;BME280;10172;42.054;24.546;2023-07-31T01:46:59;97606.31;;;22.49;95.66
20023;BME280;10172;42.054;24.546;2023-07-31T01:49:25;97607.81;;;22.51;93.46
20023;BME280;10172;42.054;24.546;2023-07-31T01:51:51;97604.50;;;23.05;88.70
20023;BME280;10172;42.054;24.546;2023-07-31T01:54:16;97609.41;;;22.67;90.81
20023;BME280;10172;42.054;24.546;2023-07-31T01:56:42;97605.09;;;22.73;91.20
20023;BME280;10172;42.054;24.546;2023-07-31T01:59:07;97599.13;;;22.84;90.48
20023;BME280;10172;42.054;24.546;2023-07-31T02:01:33;97606.88;;;22.66;93.21
20023;BME280;10172;42.054;24.546;2023-07-31T02:03:58;97595.34;;;23.06;92.42
20023;BME280;10172;42.054;24.546;2023-07-31T02:06:23;97598.28;;;23.45;93.64
20023;BME280;10172;42.054;24.546;2023-07-31T02:08:49;97586.09;;;23.35;97.03
20023;BME280;10172;42.054;24.546;2023-07-31T02:11:14;97583.19;;;23.36;97.14
20023;BME280;10172;42.054;24.546;2023-07-31T02:13:40;97593.25;;;23.42;100.00
20023;BME280;10172;42.054;24.546;2023-07-31T02:16:05;97585.13;;;23.08;100.00
20023;BME280;10172;42.054;24.546;2023-07-31T02:18:31;97588.53;;;23.23;100.00
20023;BME280;10172;42.054;24.546;2023-07-31T02:20:56;97584.41;;;23.34;100.00
20023;BME280;10172;42.054;24.546;2023-07-31T02:23:22;97581.66;;;23.61;100.00
20023;BME280;10172;42.054;24.546;2023-07-31T02:25:47;97584.78;;;23.24;100.00
20023;BME280;10172;42.054;24.546;2023-07-31T02:28:13;97563.84;;;24.00;99.81
20023;BME280;10172;42.054;24.546;2023-07-31T02:30:38;97566.88;;;23.70;100.00
20023;BME280;10172;42.054;24.546;2023-07-31T02:33:05;97572.56;;;23.89;100.00
20023;BME280;10172;42.054;24.546;2023-07-31T02:35:30;97565.41;;;23.74;100.00
20023;BME280;10172;42.054;24.546;2023-07-31T02:37:56;97565.97;;;24.11;99.42
20023;BME280;10172;42.054;24.546;2023-07-31T02:40:22;97566.34;;;23.47;100.00
20023;BME280;10172;42.054;24.546;2023-07-31T02:42:47;97553.81;;;24.07;99.59
20023;BME280;10172;42.054;24.546;2023-07-31T02:45:13;97542.38;;;24.31;99.58
20023;BME280;10172;42.054;24.546;2023-07-31T02:47:38;97553.25;;;24.77;96.43
20023;BME280;10172;42.054;24.546;2023-07-31T02:50:04;97543.63;;;24.74;95.20
20023;BME280;10172;42.054;24.546;2023-07-31T02:52:30;97554.94;;;24.84;96.93
20023;BME280;10172;42.054;24.546;2023-07-31T02:54:55;97543.81;;;25.19;94.76
20023;BME280;10172;42.054;24.546;2023-07-31T02:57:21;97538.16;;;25.07;96.97
20023;BME280;10172;42.054;24.546;2023-07-31T02:59:46;97542.56;;;25.02;99.01
20023;BME280;10172;42.054;24.546;2023-07-31T03:02:12;97546.69;;;23.99;100.00
20023;BME280;10172;42.054;24.546;2023-07-31T03:04:38;97536.00;;;23.85;100.00
20023;BME280;10172;42.054;24.546;2023-07-31T03:07:04;97535.69;;;24.53;100.00
20023;BME280;10172;42.054;24.546;2023-07-31T03:09:29;97530.47;;;24.58;100.00
20023;BME280;10172;42.054;24.546;2023-07-31T03:11:55;97538.44;;;23.60;100.00
20023;BME280;10172;42.054;24.546;2023-07-31T03:14:20;97534.66;;;23.20;100.00
20023;BME280;10172;42.054;24.546;2023-07-31T03:16:46;97541.06;;;22.72;100.00
20023;BME280;10172;42.054;24.546;2023-07-31T03:19:11;97544.91;;;22.84;100.00
20023;BME280;10172;42.054;24.546;2023-07-31T03:21:37;97547.34;;;23.47;100.00
20023;BME280;10172;42.054;24.546;2023-07-31T03:24:02;97551.75;;;23.55;100.00
20023;BME280;10172;42.054;24.546;2023-07-31T03:26:31;97554.91;;;24.19;100.00
20023;BME280;10172;42.054;24.546;2023-07-31T03:28:57;97558.25;;;23.60;100.00
20023;BME280;10172;42.054;24.546;2023-07-31T03:31:22;97558.25;;;24.21;100.00
20023;BME280;10172;42.054;24.546;2023-07-31T03:33:47;97569.31;;;24.13;100.00
20023;BME280;10172;42.054;24.546;2023-07-31T03:36:13;97584.81;;;24.25;100.00
20023;BME280;10172;42.054;24.546;2023-07-31T03:38:38;97588.00;;;23.75;100.00
20023;BME280;10172;42.054;24.546;2023-07-31T03:41:04;97592.69;;;24.07;100.00
20023;BME280;10172;42.054;24.546;2023-07-31T03:43:31;97601.75;;;22.71;100.00
20023;BME280;10172;42.054;24.546;2023-07-31T03:45:59;97605.59;;;22.40;100.00
20023;BME280;10172;42.054;24.546;2023-07-31T03:48:25;97619.13;;;22.83;100.00
20023;BME280;10172;42.054;24.546;2023-07-31T03:50:50;97610.84;;;22.91;100.00
20023;BME280;10172;42.054;24.546;2023-07-31T03:53:15;97621.91;;;22.89;100.00
20023;BME280;10172;42.054;24.546;2023-07-31T03:55:41;97613.50;;;21.34;100.00
20023;BME280;10172;42.054;24.546;2023-07-31T03:58:06;97617.59;;;21.30;100.00
20023;BME280;10172;42.054;24.546;2023-07-31T04:00:32;97621.44;;;22.01;100.00
20023;BME280;10172;42.054;24.546;2023-07-31T04:02:57;97632.28;;;22.01;100.00
20023;BME280;10172;42.054;24.546;2023-07-31T04:05:23;97630.63;;;20.60;100.00
20023;BME280;10172;42.054;24.546;2023-07-31T04:07:48;97632.81;;;20.11;100.00
20023;BME280;10172;42.054;24.546;2023-07-31T04:10:14;97642.19;;;20.54;100.00
20023;BME280;10172;42.054;24.546;2023-07-31T04:12:39;97636.16;;;21.33;100.00
20023;BME280;10172;42.054;24.546;2023-07-31T04:15:05;97645.81;;;22.01;100.00
20023;BME280;10172;42.054;24.546;2023-07-31T04:17:31;97643.38;;;21.41;100.00
20023;BME280;10172;42.054;24.546;2023-07-31T04:19:56;97634.88;;;20.55;100.00
20023;BME280;10172;42.054;24.546;2023-07-31T04:22:22;97636.06;;;20.38;100.00
20023;BME280;10172;42.054;24.546;2023-07-31T04:24:47;97639.28;;;20.33;100.00
20023;BME280;10172;42.054;24.546;2023-07-31T04:27:13;97636.91;;;20.75;100.00
20023;BME280;10172;42.054;24.546;2023-07-31T04:29:38;97645.75;;;21.07;100.00
20023;BME280;10172;42.054;24.546;2023-07-31T04:32:05;97638.03;;;21.18;100.00
20023;BME280;10172;42.054;24.546;2023-07-31T04:34:30;97642.78;;;21.45;100.00
20023;BME280;10172;42.054;24.546;2023-07-31T04:36:56;97646.22;;;21.69;100.00
20023;BME280;10172;42.054;24.546;2023-07-31T04:39:21;97645.38;;;20.72;100.00
20023;BME280;10172;42.054;24.546;2023-07-31T04:41:47;97641.97;;;20.78;100.00
20023;BME280;10172;42.054;24.546;2023-07-31T04:44:12;97649.84;;;21.03;100.00
20023;BME280;10172;42.054;24.546;2023-07-31T04:46:38;97642.41;;;21.34;100.00
20023;BME280;10172;42.054;24.546;2023-07-31T04:49:03;97644.59;;;20.86;100.00
20023;BME280;10172;42.054;24.546;2023-07-31T04:51:29;97639.63;;;21.27;100.00
20023;BME280;10172;42.054;24.546;2023-07-31T04:53:55;97635.41;;;21.10;100.00
20023;BME280;10172;42.054;24.546;2023-07-31T04:56:21;97636.44;;;21.09;100.00
20023;BME280;10172;42.054;24.546;2023-07-31T04:58:46;97627.41;;;21.31;100.00
20023;BME280;10172;42.054;24.546;2023-07-31T05:01:12;97634.09;;;21.65;100.00
20023;BME280;10172;42.054;24.546;2023-07-31T05:03:37;97632.63;;;22.13;100.00
20023;BME280;10172;42.054;24.546;2023-07-31T05:06:02;97633.75;;;22.03;100.00
20023;BME280;10172;42.054;24.546;2023-07-31T05:08:28;97648.00;;;22.48;100.00
20023;BME280;10172;42.054;24.546;2023-07-31T05:10:53;97647.88;;;22.35;100.00
20023;BME280;10172;42.054;24.546;2023-07-31T05:13:19;97639.34;;;22.59;100.00
20023;BME280;10172;42.054;24.546;2023-07-31T05:15:45;97648.44;;;22.94;100.00
20023;BME280;10172;42.054;24.546;2023-07-31T05:18:10;97633.88;;;23.29;100.00
20023;BME280;10172;42.054;24.546;2023-07-31T05:20:36;97638.78;;;23.40;100.00
20023;BME280;10172;42.054;24.546;2023-07-31T05:23:01;97640.06;;;23.92;100.00
20023;BME280;10172;42.054;24.546;2023-07-31T05:25:27;97648.66;;;24.62;100.00
20023;BME280;10172;42.054;24.546;2023-07-31T05:27:52;97648.66;;;24.02;100.00
20023;BME280;10172;42.054;24.546;2023-07-31T05:30:18;97643.13;;;24.23;100.00
20023;BME280;10172;42.054;24.546;2023-07-31T05:32:43;97647.59;;;24.63;100.00
20023;BME280;10172;42.054;24.546;2023-07-31T05:35:09;97646.84;;;24.09;100.00
20023;BME280;10172;42.054;24.546;2023-07-31T05:37:34;97646.97;;;24.74;100.00
20023;BME280;10172;42.054;24.546;2023-07-31T05:40:00;97649.91;;;23.99;100.00
20023;BME280;10172;42.054;24.546;2023-07-31T05:42:25;97641.69;;;24.27;100.00
20023;BME280;10172;42.054;24.546;2023-07-31T05:44:52;97648.66;;;24.62;100.00
20023;BME280;10172;42.054;24.546;2023-07-31T05:47:17;97653.47;;;24.00;100.00
20023;BME280;10172;42.054;24.546;2023-07-31T05:49:44;97653.47;;;24.00;100.00
20023;BME280;10172;42.054;24.546;2023-07-31T05:52:09;97651.34;;;24.56;100.00
20023;BME280;10172;42.054;24.546;2023-07-31T05:54:35;97659.72;;;24.54;100.00
20023;BME280;10172;42.054;24.546;2023-07-31T05:57:00;97651.84;;;24.85;100.00
20023;BME280;10172;42.054;24.546;2023-07-31T05:59:26;97655.50;;;24.32;100.00
20023;BME280;10172;42.054;24.546;2023-07-31T06:01:51;97667.44;;;24.51;100.00
20023;BME280;10172;42.054;24.546;2023-07-31T06:04:17;97665.59;;;24.64;100.00
20023;BME280;10172;42.054;24.546;2023-07-31T06:06:42;97667.63;;;24.29;100.00
20023;BME280;10172;42.054;24.546;2023-07-31T06:09:08;97666.06;;;24.87;100.00
20023;BME280;10172;42.054;24.546;2023-07-31T06:11:33;97668.38;;;25.17;100.00
20023;BME280;10172;42.054;24.546;2023-07-31T06:13:59;97669.16;;;24.78;100.00
20023;BME280;10172;42.054;24.546;2023-07-31T06:16:24;97669.28;;;24.24;100.00
20023;BME280;10172;42.054;24.546;2023-07-31T06:18:50;97666.84;;;23.95;100.00
20023;BME280;10172;42.054;24.546;2023-07-31T06:21:16;97678.56;;;24.02;100.00
20023;BME280;10172;42.054;24.546;2023-07-31T06:23:42;97674.94;;;24.42;100.00
20023;BME280;10172;42.054;24.546;2023-07-31T06:26:08;97679.59;;;24.55;100.00
20023;BME280;10172;42.054;24.546;2023-07-31T06:28:34;97676.44;;;24.58;100.00
20023;BME280;10172;42.054;24.546;2023-07-31T06:30:59;97677.47;;;24.50;100.00
20023;BME280;10172;42.054;24.546;2023-07-31T06:33:26;97684.28;;;24.20;100.00
20023;BME280;10172;42.054;24.546;2023-07-31T06:35:51;97683.19;;;24.75;100.00
20023;BME280;10172;42.054;24.546;2023-07-31T06:38:24;97684.25;;;25.20;100.00
20023;BME280;10172;42.054;24.546;2023-07-31T06:40:49;97678.59;;;25.28;100.00
20023;BME280;10172;42.054;24.546;2023-07-31T06:43:15;97672.75;;;24.98;100.00
20023;BME280;10172;42.054;24.546;2023-07-31T06:45:40;97669.78;;;24.67;100.00
20023;BME280;10172;42.054;24.546;2023-07-31T06:48:06;97663.56;;;24.92;100.00
20023;BME280;10172;42.054;24.546;2023-07-31T06:50:32;97662.28;;;25.02;100.00
20023;BME280;10172;42.054;24.546;2023-07-31T06:52:58;97663.97;;;25.22;100.00
20023;BME280;10172;42.054;24.546;2023-07-31T06:55:24;97662.69;;;25.12;100.00
20023;BME280;10172;42.054;24.546;2023-07-31T06:57:51;97665.44;;;25.05;100.00
20023;BME280;10172;42.054;24.546;2023-07-31T07:00:18;97666.00;;;25.66;100.00
20023;BME280;10172;42.054;24.546;2023-07-31T07:02:44;97667.47;;;25.69;100.00
20023;BME280;10172;42.054;24.546;2023-07-31T07:05:10;97670.22;;;25.36;100.00
20023;BME280;10172;42.054;24.546;2023-07-31T07:07:36;97677.38;;;25.11;100.00
20023;BME280;10172;42.054;24.546;2023-07-31T07:10:03;97675.47;;;24.91;100.00
20023;BME280;10172;42.054;24.546;2023-07-31T07:12:30;97680.31;;;25.16;100.00
20023;BME280;10172;42.054;24.546;2023-07-31T07:14:56;97678.59;;;25.28;100.00
20023;BME280;10172;42.054;24.546;2023-07-31T07:17:23;97668.56;;;25.35;100.00
20023;BME280;10172;42.054;24.546;2023-07-31T07:19:48;97675.84;;;25.61;100.00
20023;BME280;10172;42.054;24.546;2023-07-31T07:22:14;97678.16;;;25.44;100.00
20023;BME280;10172;42.054;24.546;2023-07-31T07:24:40;97692.00;;;25.29;100.00
20023;BME280;10172;42.054;24.546;2023-07-31T07:27:06;97688.63;;;25.67;100.00
20023;BME280;10172;42.054;24.546;2023-07-31T07:29:33;97685.22;;;25.91;100.00
20023;BME280;10172;42.054;24.546;2023-07-31T07:31:59;97682.06;;;25.87;100.00
20023;BME280;10172;42.054;24.546;2023-07-31T07:34:26;97675.09;;;26.04;100.00
20023;BME280;10172;42.054;24.546;2023-07-31T07:36:52;97681.78;;;25.25;100.00
20023;BME280;10172;42.054;24.546;2023-07-31T07:39:18;97683.59;;;25.44;100.00
20023;BME280;10172;42.054;24.546;2023-07-31T07:41:43;97685.13;;;26.17;100.00
20023;BME280;10172;42.054;24.546;2023-07-31T07:44:09;97684.84;;;26.38;100.00
20023;BME280;10172;42.054;24.546;2023-07-31T07:46:34;97681.13;;;25.49;100.00
20023;BME280;10172;42.054;24.546;2023-07-31T07:49:00;97673.75;;;25.69;100.00
20023;BME280;10172;42.054;24.546;2023-07-31T07:51:25;97680.22;;;25.81;100.00
20023;BME280;10172;42.054;24.546;2023-07-31T07:53:51;97698.72;;;25.53;100.00
20023;BME280;10172;42.054;24.546;2023-07-31T07:56:16;97684.66;;;25.43;100.00
20023;BME280;10172;42.054;24.546;2023-07-31T07:58:42;97686.47;;;25.88;100.00
20023;BME280;10172;42.054;24.546;2023-07-31T08:01:08;97689.63;;;26.43;100.00
20023;BME280;10172;42.054;24.546;2023-07-31T08:03:33;97696.78;;;27.06;100.00
20023;BME280;10172;42.054;24.546;2023-07-31T08:06:00;97688.13;;;26.85;100.00
20023;BME280;10172;42.054;24.546;2023-07-31T08:08:26;97687.47;;;26.89;100.00
20023;BME280;10172;42.054;24.546;2023-07-31T08:10:51;97681.72;;;26.66;100.00
20023;BME280;10172;42.054;24.546;2023-07-31T08:13:16;97674.69;;;26.52;100.00
20023;BME280;10172;42.054;24.546;2023-07-31T08:15:42;97665.25;;;26.17;100.00
20023;BME280;10172;42.054;24.546;2023-07-31T08:18:08;97665.47;;;25.95;100.00
20023;BME280;10172;42.054;24.546;2023-07-31T08:20:34;97659.19;;;26.84;100.00
20023;BME280;10172;42.054;24.546;2023-07-31T08:22:59;97670.84;;;27.47;100.00
20023;BME280;10172;42.054;24.546;2023-07-31T08:25:25;97671.78;;;27.09;100.00
20023;BME280;10172;42.054;24.546;2023-07-31T08:27:51;97659.09;;;27.82;100.00
20023;BME280;10172;42.054;24.546;2023-07-31T08:30:18;97662.13;;;28.59;100.00
20023;BME280;10172;42.054;24.546;2023-07-31T08:32:44;97648.13;;;29.08;100.00
20023;BME280;10172;42.054;24.546;2023-07-31T08:35:09;97661.09;;;28.60;100.00
20023;BME280;10172;42.054;24.546;2023-07-31T08:37:35;97661.22;;;26.57;100.00
20023;BME280;10172;42.054;24.546;2023-07-31T08:40:01;97643.47;;;27.71;100.00
20023;BME280;10172;42.054;24.546;2023-07-31T08:42:27;97645.44;;;28.01;100.00
20023;BME280;10172;42.054;24.546;2023-07-31T08:44:53;97649.69;;;28.44;100.00
20023;BME280;10172;42.054;24.546;2023-07-31T08:47:21;97646.53;;;27.81;100.00
20023;BME280;10172;42.054;24.546;2023-07-31T08:49:47;97642.25;;;27.85;100.00
20023;BME280;10172;42.054;24.546;2023-07-31T08:52:13;97653.03;;;28.65;100.00
20023;BME280;10172;42.054;24.546;2023-07-31T08:54:39;97658.88;;;28.38;100.00
20023;BME280;10172;42.054;24.546;2023-07-31T08:57:06;97656.44;;;27.94;100.00
20023;BME280;10172;42.054;24.546;2023-07-31T08:59:34;97645.59;;;27.51;100.00
20023;BME280;10172;42.054;24.546;2023-07-31T09:02:06;97640.16;;;28.35;99.16
20023;BME280;10172;42.054;24.546;2023-07-31T09:04:33;97642.41;;;29.10;96.74
20023;BME280;10172;42.054;24.546;2023-07-31T09:07:03;97638.75;;;28.63;98.25
20023;BME280;10172;42.054;24.546;2023-07-31T09:09:30;97633.97;;;28.10;98.09
20023;BME280;10172;42.054;24.546;2023-07-31T09:11:58;97649.28;;;28.59;96.88
20023;BME280;10172;42.054;24.546;2023-07-31T09:14:24;97642.25;;;28.52;95.78
20023;BME280;10172;42.054;24.546;2023-07-31T09:16:57;97649.13;;;28.72;95.69
20023;BME280;10172;42.054;24.546;2023-07-31T09:19:27;97653.13;;;28.10;97.78
20023;BME280;10172;42.054;24.546;2023-07-31T09:21:53;97650.97;;;27.94;97.55
20023;BME280;10172;42.054;24.546;2023-07-31T09:24:26;97644.84;;;27.80;97.72
20023;BME280;10172;42.054;24.546;2023-07-31T09:26:54;97639.13;;;28.00;99.51
20023;BME280;10172;42.054;24.546;2023-07-31T09:29:23;97652.22;;;28.16;99.22
20023;BME280;10172;42.054;24.546;2023-07-31T09:31:50;97647.09;;;28.20;97.21
20023;BME280;10172;42.054;24.546;2023-07-31T09:34:16;97645.44;;;28.19;97.84
20023;BME280;10172;42.054;24.546;2023-07-31T09:36:49;97621.28;;;28.16;95.82
20023;BME280;10172;42.054;24.546;2023-07-31T09:39:17;97635.38;;;28.61;91.33
20023;BME280;10172;42.054;24.546;2023-07-31T09:41:53;97629.06;;;28.90;91.00
20023;BME280;10172;42.054;24.546;2023-07-31T09:44:19;97628.94;;;30.01;87.04
20023;BME280;10172;42.054;24.546;2023-07-31T09:46:45;97622.41;;;29.09;90.94
20023;BME280;10172;42.054;24.546;2023-07-31T09:49:12;97614.81;;;29.57;87.38
20023;BME280;10172;42.054;24.546;2023-07-31T09:51:38;97623.50;;;29.89;82.50
20023;BME280;10172;42.054;24.546;2023-07-31T09:54:12;97617.06;;;30.23;81.04
20023;BME280;10172;42.054;24.546;2023-07-31T09:56:45;97616.53;;;30.66;80.99
20023;BME280;10172;42.054;24.546;2023-07-31T09:59:16;97628.75;;;29.44;81.98
20023;BME280;10172;42.054;24.546;2023-07-31T10:01:43;97613.56;;;29.77;82.75
20023;BME280;10172;42.054;24.546;2023-07-31T10:04:10;97601.88;;;31.06;75.36
20023;BME280;10172;42.054;24.546;2023-07-31T10:06:37;97603.97;;;29.62;75.28
20023;BME280;10172;42.054;24.546;2023-07-31T10:09:08;97601.34;;;30.19;77.84
20023;BME280;10172;42.054;24.546;2023-07-31T10:11:56;97596.31;;;29.76;77.52
20023;BME280;10172;42.054;24.546;2023-07-31T10:14:26;97591.44;;;29.20;74.25
20023;BME280;10172;42.054;24.546;2023-07-31T10:16:52;97596.91;;;29.67;72.30
20023;BME280;10172;42.054;24.546;2023-07-31T10:19:18;97592.13;;;29.97;71.94
20023;BME280;10172;42.054;24.546;2023-07-31T10:21:46;97597.31;;;30.66;68.24
20023;BME280;10172;42.054;24.546;2023-07-31T10:24:14;97584.84;;;29.91;68.86
20023;BME280;10172;42.054;24.546;2023-07-31T10:26:41;97582.50;;;30.51;68.88
20023;BME280;10172;42.054;24.546;2023-07-31T10:29:06;97582.03;;;30.87;67.84
20023;BME280;10172;42.054;24.546;2023-07-31T10:31:32;97572.38;;;30.85;67.70
20023;BME280;10172;42.054;24.546;2023-07-31T10:33:59;97570.81;;;29.87;71.04
20023;BME280;10172;42.054;24.546;2023-07-31T10:36:26;97564.31;;;29.42;69.64
20023;BME280;10172;42.054;24.546;2023-07-31T10:38:52;97575.59;;;29.80;68.84
20023;BME280;10172;42.054;24.546;2023-07-31T10:41:17;97564.50;;;29.87;67.87
20023;BME280;10172;42.054;24.546;2023-07-31T10:43:46;97558.81;;;29.53;69.13
20023;BME280;10172;42.054;24.546;2023-07-31T10:46:13;97560.72;;;30.04;65.47
20023;BME280;10172;42.054;24.546;2023-07-31T10:48:40;97549.66;;;30.72;62.06
20023;BME280;10172;42.054;24.546;2023-07-31T10:51:11;97538.16;;;31.25;59.05
20023;BME280;10172;42.054;24.546;2023-07-31T10:53:41;97543.25;;;31.17;58.59
20023;BME280;10172;42.054;24.546;2023-07-31T10:56:09;97557.44;;;30.92;60.72
20023;BME280;10172;42.054;24.546;2023-07-31T10:58:37;97555.19;;;29.88;64.69
20023;BME280;10172;42.054;24.546;2023-07-31T11:01:04;97547.56;;;30.46;62.89
20023;BME280;10172;42.054;24.546;2023-07-31T11:03:49;97546.19;;;30.94;60.02
20023;BME280;10172;42.054;24.546;2023-07-31T11:06:15;97542.94;;;31.13;60.96
20023;BME280;10172;42.054;24.546;2023-07-31T11:08:44;97544.28;;;30.94;60.64
20023;BME280;10172;42.054;24.546;2023-07-31T11:11:12;97539.19;;;30.25;62.33
20023;BME280;10172;42.054;24.546;2023-07-31T11:13:42;97543.66;;;30.14;64.89
20023;BME280;10172;42.054;24.546;2023-07-31T11:16:08;97534.75;;;30.85;59.38
20023;BME280;10172;42.054;24.546;2023-07-31T11:18:34;97525.41;;;31.36;56.37
20023;BME280;10172;42.054;24.546;2023-07-31T11:21:00;97534.31;;;32.08;54.79
20023;BME280;10172;42.054;24.546;2023-07-31T11:23:26;97532.44;;;30.44;55.60
20023;BME280;10172;42.054;24.546;2023-07-31T11:25:51;97528.63;;;31.11;56.32
20023;BME280;10172;42.054;24.546;2023-07-31T11:28:18;97531.88;;;30.92;56.83
20023;BME280;10172;42.054;24.546;2023-07-31T11:30:44;97523.28;;;31.05;56.59
20023;BME280;10172;42.054;24.546;2023-07-31T11:33:12;97519.69;;;30.88;55.71
20023;BME280;10172;42.054;24.546;2023-07-31T11:35:44;97514.41;;;31.36;54.92
20023;BME280;10172;42.054;24.546;2023-07-31T11:38:11;97517.38;;;31.94;52.75
20023;BME280;10172;42.054;24.546;2023-07-31T11:40:42;97522.03;;;31.94;52.99
20023;BME280;10172;42.054;24.546;2023-07-31T11:43:08;97520.72;;;31.36;54.92
20023;BME280;10172;42.054;24.546;2023-07-31T11:45:33;97521.94;;;30.91;62.71
20023;BME280;10172;42.054;24.546;2023-07-31T11:48:00;97517.97;;;31.36;63.69
20023;BME280;10172;42.054;24.546;2023-07-31T11:50:26;97521.41;;;31.27;66.92
20023;BME280;10172;42.054;24.546;2023-07-31T11:52:57;97524.53;;;30.19;72.12
20023;BME280;10172;42.054;24.546;2023-07-31T11:55:25;97518.53;;;30.50;69.73
20023;BME280;10172;42.054;24.546;2023-07-31T11:57:51;97523.41;;;31.31;67.11
20023;BME280;10172;42.054;24.546;2023-07-31T12:00:18;97503.88;;;31.50;66.02
20023;BME280;10172;42.054;24.546;2023-07-31T12:02:44;97511.28;;;31.27;71.61
20023;BME280;10172;42.054;24.546;2023-07-31T12:05:11;97506.22;;;31.41;73.66
20023;BME280;10172;42.054;24.546;2023-07-31T12:07:49;97507.63;;;31.60;74.28
20023;BME280;10172;42.054;24.546;2023-07-31T12:10:33;97505.09;;;31.80;73.93
20023;BME280;10172;42.054;24.546;2023-07-31T12:13:09;97502.28;;;31.75;73.61
20023;BME280;10172;42.054;24.546;2023-07-31T12:15:45;97498.25;;;32.05;70.77
20023;BME280;10172;42.054;24.546;2023-07-31T12:18:12;97491.97;;;32.36;71.75
20023;BME280;10172;42.054;24.546;2023-07-31T12:20:48;97486.72;;;32.66;68.33
20023;BME280;10172;42.054;24.546;2023-07-31T12:23:15;97480.97;;;32.36;68.17
20023;BME280;10172;42.054;24.546;2023-07-31T12:25:42;97475.41;;;32.99;62.47
20023;BME280;10172;42.054;24.546;2023-07-31T12:28:07;97477.38;;;33.51;58.01
20023;BME280;10172;42.054;24.546;2023-07-31T12:30:38;97473.78;;;34.22;56.04
20023;BME280;10172;42.054;24.546;2023-07-31T12:33:05;97474.94;;;34.57;53.71
20023;BME280;10172;42.054;24.546;2023-07-31T12:35:36;97466.50;;;33.96;51.74
20023;BME280;10172;42.054;24.546;2023-07-31T12:38:02;97467.16;;;34.18;51.20
20023;BME280;10172;42.054;24.546;2023-07-31T12:40:28;97456.66;;;34.25;51.77
20023;BME280;10172;42.054;24.546;2023-07-31T12:42:53;97462.91;;;33.86;54.06
20023;BME280;10172;42.054;24.546;2023-07-31T12:45:19;97454.44;;;33.35;55.09
20023;BME280;10172;42.054;24.546;2023-07-31T12:47:46;97456.31;;;32.88;57.88